createdAt,value
2018-05-24T00:02:21.642Z,17.60
2018-05-24T00:04:49.531Z,17.60
2018-05-24T00:07:17.441Z,17.60
2018-05-24T00:09:45.322Z,17.60
2018-05-24T00:12:13.220Z,17.60
2018-05-24T00:14:41.112Z,17.50
2018-05-24T00:17:09.087Z,17.50
2018-05-24T00:19:36.574Z,17.60
2018-05-24T00:22:04.160Z,17.60
2018-05-24T00:24:32.050Z,17.50
2018-05-24T00:27:00.049Z,17.50
2018-05-24T00:29:27.936Z,17.50
2018-05-24T00:31:55.447Z,17.50
2018-05-24T00:34:22.922Z,17.40
2018-05-24T00:36:50.832Z,17.30
2018-05-24T00:39:18.317Z,17.40
2018-05-24T00:41:45.855Z,17.30
2018-05-24T00:44:13.438Z,17.20
2018-05-24T00:46:40.947Z,17.20
2018-05-24T00:49:08.832Z,17.20
2018-05-24T00:51:36.739Z,17.10
2018-05-24T00:54:04.221Z,17.20
2018-05-24T00:56:31.778Z,17.10
2018-05-24T00:58:59.267Z,17.00
2018-05-24T01:01:26.771Z,17.00
2018-05-24T01:03:54.664Z,17.00
2018-05-24T01:06:22.591Z,17.00
2018-05-24T01:08:50.074Z,17.00
2018-05-24T01:11:17.571Z,17.00
2018-05-24T01:13:45.182Z,17.00
2018-05-24T01:16:12.661Z,17.00
2018-05-24T01:18:40.162Z,17.00
2018-05-24T01:21:08.048Z,17.00
2018-05-24T01:23:35.959Z,17.10
2018-05-24T01:26:03.470Z,17.10
2018-05-24T01:28:31.035Z,17.10
2018-05-24T01:30:58.485Z,17.00
2018-05-24T01:33:25.997Z,17.10
2018-05-24T01:35:53.487Z,17.10
2018-05-24T01:38:20.996Z,17.10
2018-05-24T01:40:48.488Z,17.10
2018-05-24T01:43:16.004Z,17.20
2018-05-24T01:45:43.593Z,17.30
2018-05-24T01:48:11.108Z,17.30
2018-05-24T01:50:38.599Z,17.40
2018-05-24T01:53:06.111Z,17.40
2018-05-24T01:55:33.604Z,17.30
2018-05-24T01:58:01.119Z,17.40
2018-05-24T02:00:29.014Z,17.40
2018-05-24T02:02:57.000Z,17.40
2018-05-24T02:05:24.988Z,17.40
2018-05-24T02:07:52.490Z,17.40
2018-05-24T02:10:20.380Z,17.50
2018-05-24T02:12:48.298Z,17.50
2018-05-24T02:15:15.839Z,17.50
2018-05-24T02:17:43.359Z,17.50
2018-05-24T02:20:10.907Z,17.60
2018-05-24T02:22:38.485Z,17.60
2018-05-24T02:25:05.978Z,17.60
2018-05-24T02:27:33.867Z,17.60
2018-05-24T02:30:01.383Z,17.60
2018-05-24T02:32:28.870Z,17.70
2018-05-24T02:34:56.414Z,17.70
2018-05-24T02:37:23.912Z,17.70
2018-05-24T02:39:51.810Z,17.70
2018-05-24T02:42:19.695Z,17.70
2018-05-24T02:44:47.604Z,17.70
2018-05-24T02:47:15.496Z,17.70
2018-05-24T02:49:43.401Z,17.70
2018-05-24T02:52:10.891Z,17.80
2018-05-24T02:54:38.427Z,17.70
2018-05-24T02:57:06.013Z,17.70
2018-05-24T02:59:33.525Z,17.80
2018-05-24T03:02:01.502Z,17.80
2018-05-24T03:04:29.422Z,17.70
2018-05-24T03:06:56.918Z,17.80
2018-05-24T03:09:24.459Z,17.80
2018-05-24T03:11:52.443Z,17.80
2018-05-24T03:14:19.998Z,17.80
2018-05-24T03:16:47.461Z,17.80
2018-05-24T03:19:14.967Z,17.70
2018-05-24T03:21:42.500Z,17.70
2018-05-24T03:24:10.539Z,17.60
2018-05-24T03:26:38.023Z,17.70
2018-05-24T03:29:05.559Z,17.60
2018-05-24T03:31:33.455Z,17.60
2018-05-24T03:34:01.351Z,17.60
2018-05-24T03:36:29.236Z,17.60
2018-05-24T03:38:57.140Z,17.60
2018-05-24T03:41:25.027Z,17.50
2018-05-24T03:43:52.936Z,17.50
2018-05-24T03:46:20.477Z,17.50
2018-05-24T03:48:47.977Z,17.40
2018-05-24T03:51:15.457Z,17.40
2018-05-24T03:53:43.097Z,17.40
2018-05-24T03:56:10.611Z,17.20
2018-05-24T03:58:38.103Z,17.30
2018-05-24T04:01:17.461Z,17.30
2018-05-24T04:03:49.670Z,17.30
2018-05-24T04:06:17.246Z,17.30
2018-05-24T04:08:44.735Z,17.30
2018-05-24T04:11:12.309Z,17.30
2018-05-24T04:13:39.799Z,17.30
2018-05-24T04:16:07.312Z,17.20
2018-05-24T04:18:34.794Z,17.20
2018-05-24T04:21:02.294Z,17.20
2018-05-24T04:23:29.777Z,17.20
2018-05-24T04:25:57.282Z,17.20
2018-05-24T04:28:24.779Z,17.10
2018-05-24T04:30:52.296Z,17.10
2018-05-24T04:33:20.265Z,17.10
2018-05-24T04:35:47.775Z,17.20
2018-05-24T04:38:15.660Z,17.20
2018-05-24T04:40:43.568Z,17.20
2018-05-24T04:43:11.544Z,17.20
2018-05-24T04:45:39.126Z,17.20
2018-05-24T04:48:06.620Z,17.20
2018-05-24T04:50:34.527Z,17.10
2018-05-24T04:53:02.019Z,17.20
2018-05-24T04:55:30.535Z,17.20
2018-05-24T04:57:58.065Z,17.10
2018-05-24T05:00:25.658Z,17.10
2018-05-24T05:02:53.238Z,17.10
2018-05-24T05:05:20.827Z,17.10
2018-05-24T05:07:48.321Z,17.00
2018-05-24T05:10:15.899Z,17.10
2018-05-24T05:12:43.477Z,17.10
2018-05-24T05:15:11.076Z,17.00
2018-05-24T05:17:38.588Z,16.90
2018-05-24T05:20:06.079Z,16.90
2018-05-24T05:22:33.615Z,17.00
2018-05-24T05:25:01.109Z,17.00
2018-05-24T05:27:29.012Z,16.90
2018-05-24T05:29:56.899Z,16.90
2018-05-24T05:32:24.815Z,16.90
2018-05-24T05:34:52.308Z,16.90
2018-05-24T05:37:19.820Z,16.90
2018-05-24T05:39:47.331Z,16.90
2018-05-24T05:42:14.830Z,16.90
2018-05-24T05:44:42.765Z,16.90
2018-05-24T05:47:10.628Z,16.80
2018-05-24T05:49:38.595Z,16.80
2018-05-24T05:52:06.121Z,16.80
2018-05-24T05:54:33.649Z,16.80
2018-05-24T05:57:02.082Z,16.80
2018-05-24T05:59:30.067Z,16.70
2018-05-24T06:01:57.591Z,16.70
2018-05-24T06:04:25.088Z,16.60
2018-05-24T06:06:52.603Z,16.50
2018-05-24T06:09:20.095Z,16.70
2018-05-24T06:11:47.602Z,16.60
2018-05-24T06:14:15.575Z,16.50
2018-05-24T06:16:43.083Z,16.50
2018-05-24T06:19:10.966Z,16.40
2018-05-24T06:21:38.911Z,16.50
2018-05-24T06:24:06.387Z,16.50
2018-05-24T06:26:33.889Z,16.50
2018-05-24T06:29:01.379Z,16.40
2018-05-24T06:31:28.865Z,16.40
2018-05-24T06:33:56.376Z,16.40
2018-05-24T06:36:24.369Z,16.50
2018-05-24T06:38:52.342Z,16.50
2018-05-24T06:41:19.839Z,16.50
2018-05-24T06:43:47.849Z,16.50
2018-05-24T06:46:15.737Z,16.60
2018-05-24T06:48:43.711Z,16.60
2018-05-24T06:51:11.199Z,16.60
2018-05-24T06:53:38.803Z,16.50
2018-05-24T06:56:06.228Z,16.60
2018-05-24T06:58:33.735Z,16.60
2018-05-24T07:01:01.218Z,16.60
2018-05-24T07:03:28.727Z,16.60
2018-05-24T07:05:56.632Z,16.70
2018-05-24T07:08:24.137Z,16.70
2018-05-24T07:10:51.631Z,16.70
2018-05-24T07:13:19.144Z,16.70
2018-05-24T07:15:46.635Z,16.70
2018-05-24T07:18:14.147Z,16.70
2018-05-24T07:20:41.693Z,16.80
2018-05-24T07:23:09.203Z,16.80
2018-05-24T07:25:37.178Z,16.80
2018-05-24T07:28:04.691Z,16.80
2018-05-24T07:30:32.183Z,16.90
2018-05-24T07:32:59.751Z,17.00
2018-05-24T07:35:27.638Z,17.20
2018-05-24T07:37:55.616Z,17.30
2018-05-24T07:40:23.108Z,17.30
2018-05-24T07:42:50.999Z,17.50
2018-05-24T07:45:18.577Z,17.50
2018-05-24T07:47:46.082Z,17.60
2018-05-24T07:50:13.982Z,17.80
2018-05-24T07:52:41.473Z,17.80
2018-05-24T07:55:08.983Z,17.90
2018-05-24T07:57:36.474Z,17.90
2018-05-24T08:00:03.987Z,18.00
2018-05-24T08:02:31.471Z,18.10
2018-05-24T08:04:58.979Z,18.20
2018-05-24T08:07:26.943Z,18.40
2018-05-24T08:09:54.452Z,18.40
2018-05-24T08:12:22.340Z,18.50
2018-05-24T08:14:50.356Z,18.50
2018-05-24T08:17:18.235Z,18.60
2018-05-24T08:19:46.199Z,18.70
2018-05-24T08:22:13.696Z,18.70
2018-05-24T08:24:41.812Z,18.80
2018-05-24T08:27:09.311Z,18.80
2018-05-24T08:29:36.814Z,18.90
2018-05-24T08:32:04.321Z,19.10
2018-05-24T08:34:31.831Z,19.30
2018-05-24T08:36:59.710Z,19.40
2018-05-24T08:39:27.220Z,19.40
2018-05-24T08:41:55.182Z,19.70
2018-05-24T08:44:22.775Z,19.70
2018-05-24T08:46:50.354Z,19.90
2018-05-24T08:49:17.867Z,20.00
2018-05-24T08:51:45.755Z,19.90
2018-05-24T08:54:13.649Z,19.90
2018-05-24T08:56:41.545Z,19.90
2018-05-24T08:59:09.455Z,19.90
2018-05-24T09:01:36.955Z,19.90
2018-05-24T09:04:04.459Z,19.90
2018-05-24T09:06:31.946Z,20.00
2018-05-24T09:08:59.560Z,20.10
2018-05-24T09:11:27.470Z,20.20
2018-05-24T09:13:55.439Z,20.10
2018-05-24T09:16:23.047Z,20.20
2018-05-24T09:18:50.935Z,20.20
2018-05-24T09:21:18.835Z,20.30
2018-05-24T09:23:46.332Z,20.30
2018-05-24T09:26:13.868Z,20.30
2018-05-24T09:28:41.354Z,20.50
2018-05-24T09:31:08.930Z,20.60
2018-05-24T09:33:36.463Z,20.60
2018-05-24T09:36:03.971Z,20.50
2018-05-24T09:38:31.474Z,20.40
2018-05-24T09:40:59.075Z,20.40
2018-05-24T09:43:26.572Z,20.40
2018-05-24T09:45:54.552Z,20.40
2018-05-24T09:48:22.143Z,20.40
2018-05-24T09:50:49.652Z,20.40
2018-05-24T09:53:17.143Z,20.50
2018-05-24T09:55:44.656Z,20.50
2018-05-24T09:58:12.143Z,20.60
2018-05-24T10:00:39.654Z,20.60
2018-05-24T10:03:07.147Z,20.60
2018-05-24T10:05:35.158Z,20.60
2018-05-24T10:08:03.164Z,20.60
2018-05-24T10:10:30.780Z,20.60
2018-05-24T10:12:58.202Z,20.70
2018-05-24T10:15:25.716Z,20.80
2018-05-24T10:17:53.202Z,20.80
2018-05-24T10:20:20.773Z,21.00
2018-05-24T10:22:48.668Z,21.20
2018-05-24T10:25:16.228Z,21.20
2018-05-24T10:27:43.719Z,21.40
2018-05-24T10:30:11.214Z,21.50
2018-05-24T10:32:38.732Z,21.60
2018-05-24T10:35:06.217Z,21.70
2018-05-24T10:37:33.730Z,21.90
2018-05-24T10:40:01.330Z,22.10
2018-05-24T10:42:29.318Z,22.10
2018-05-24T10:44:57.449Z,22.10
2018-05-24T10:47:24.991Z,22.10
2018-05-24T10:49:52.588Z,22.10
2018-05-24T10:52:20.490Z,22.20
2018-05-24T10:54:48.468Z,22.20
2018-05-24T10:57:16.047Z,22.20
2018-05-24T10:59:43.543Z,22.10
2018-05-24T11:02:11.535Z,22.00
2018-05-24T11:04:39.115Z,22.00
2018-05-24T11:07:06.613Z,22.10
2018-05-24T11:09:34.583Z,22.50
2018-05-24T11:12:02.103Z,22.60
2018-05-24T11:14:29.595Z,22.80
2018-05-24T11:16:57.144Z,23.00
2018-05-24T11:19:24.653Z,23.00
2018-05-24T11:21:52.175Z,23.00
2018-05-24T11:24:19.667Z,23.00
2018-05-24T11:26:47.185Z,22.90
2018-05-24T11:29:15.076Z,22.90
2018-05-24T11:31:42.671Z,22.90
2018-05-24T11:34:10.135Z,22.90
2018-05-24T11:36:37.720Z,23.00
2018-05-24T11:39:06.152Z,22.90
2018-05-24T11:41:33.658Z,23.00
2018-05-24T11:44:01.147Z,23.00
2018-05-24T11:46:28.651Z,22.90
2018-05-24T11:48:56.144Z,23.00
2018-05-24T11:51:23.748Z,23.10
2018-05-24T11:53:51.317Z,23.10
2018-05-24T11:56:18.809Z,23.20
2018-05-24T11:58:46.395Z,23.10
2018-05-24T12:01:13.883Z,23.20
2018-05-24T12:03:41.387Z,23.10
2018-05-24T12:06:09.269Z,23.20
2018-05-24T12:08:37.188Z,23.10
2018-05-24T12:11:04.735Z,23.10
2018-05-24T12:13:32.239Z,23.20
2018-05-24T12:16:00.124Z,23.40
2018-05-24T12:18:28.016Z,23.50
2018-05-24T12:20:55.587Z,23.50
2018-05-24T12:23:23.176Z,23.70
2018-05-24T12:25:50.668Z,23.70
2018-05-24T12:28:18.648Z,23.90
2018-05-24T12:30:46.231Z,23.90
2018-05-24T12:33:13.825Z,24.00
2018-05-24T12:35:41.490Z,24.00
2018-05-24T12:38:09.399Z,24.10
2018-05-24T12:40:36.883Z,24.10
2018-05-24T12:43:04.464Z,23.90
2018-05-24T12:45:32.047Z,23.90
2018-05-24T12:47:59.626Z,23.90
2018-05-24T12:50:27.119Z,24.10
2018-05-24T12:52:54.623Z,24.30
2018-05-24T12:55:22.603Z,24.50
2018-05-24T12:57:50.128Z,24.50
2018-05-24T13:00:17.623Z,24.60
2018-05-24T13:02:45.126Z,24.60
2018-05-24T13:05:12.611Z,24.50
2018-05-24T13:07:40.121Z,24.50
2018-05-24T13:10:08.008Z,24.50
2018-05-24T13:12:35.591Z,24.50
2018-05-24T13:15:03.176Z,24.30
2018-05-24T13:17:30.759Z,24.20
2018-05-24T13:19:58.264Z,24.20
2018-05-24T13:22:26.142Z,24.10
2018-05-24T13:24:53.646Z,24.20
2018-05-24T13:27:21.557Z,24.20
2018-05-24T13:29:49.063Z,24.20
2018-05-24T13:32:16.551Z,24.20
2018-05-24T13:34:44.054Z,24.20
2018-05-24T13:37:11.642Z,24.20
2018-05-24T13:39:39.151Z,24.00
2018-05-24T13:42:07.051Z,23.90
2018-05-24T13:44:34.963Z,23.80
2018-05-24T13:47:02.464Z,23.80
2018-05-24T13:49:29.977Z,23.90
2018-05-24T13:51:57.472Z,23.90
2018-05-24T13:54:25.054Z,23.90
2018-05-24T13:56:52.547Z,23.70
2018-05-24T13:59:20.456Z,23.50
2018-05-24T14:01:48.413Z,23.30
2018-05-24T14:04:15.891Z,23.30
2018-05-24T14:06:43.384Z,23.30
2018-05-24T14:09:10.895Z,23.30
2018-05-24T14:11:38.787Z,23.00
2018-05-24T14:14:06.695Z,22.90
2018-05-24T14:16:34.230Z,22.90
2018-05-24T14:19:01.744Z,22.90
2018-05-24T14:21:29.640Z,23.00
2018-05-24T14:23:57.550Z,23.10
2018-05-24T14:26:25.039Z,23.00
2018-05-24T14:28:52.537Z,22.90
2018-05-24T14:31:20.022Z,22.90
2018-05-24T14:33:47.527Z,22.90
2018-05-24T14:36:15.019Z,22.80
2018-05-24T14:38:42.539Z,22.70
2018-05-24T14:41:10.034Z,22.60
2018-05-24T14:43:37.522Z,22.50
2018-05-24T14:46:05.028Z,22.50
2018-05-24T14:48:32.519Z,22.50
2018-05-24T14:51:00.029Z,22.50
2018-05-24T14:53:27.909Z,22.50
2018-05-24T14:55:55.422Z,22.50
2018-05-24T14:58:23.303Z,22.70
2018-05-24T15:00:51.199Z,22.70
2018-05-24T15:03:19.078Z,22.60
2018-05-24T15:05:46.583Z,22.60
2018-05-24T15:08:14.464Z,22.50
2018-05-24T15:10:42.485Z,22.50
2018-05-24T15:16:03.611Z,22.40
2018-05-24T15:18:31.111Z,22.40
2018-05-24T15:20:58.611Z,22.30
2018-05-24T15:23:26.587Z,22.10
2018-05-24T15:25:54.091Z,22.10
2018-05-24T15:28:21.974Z,22.10
2018-05-24T15:30:49.559Z,22.10
2018-05-24T15:33:17.151Z,22.10
2018-05-24T15:35:45.051Z,22.10
2018-05-24T15:38:13.019Z,22.00
2018-05-24T15:40:40.570Z,22.00
2018-05-24T15:43:08.499Z,21.90
2018-05-24T15:45:36.004Z,21.90
2018-05-24T15:48:03.884Z,21.70
2018-05-24T15:50:31.387Z,21.80
2018-05-24T15:52:58.951Z,21.70
2018-05-24T15:55:26.454Z,21.70
2018-05-24T15:57:54.343Z,21.70
2018-05-24T16:00:22.313Z,21.60
2018-05-24T16:02:49.808Z,21.70
2018-05-24T16:05:17.711Z,21.60
2018-05-24T16:07:45.594Z,21.60
2018-05-24T16:10:13.571Z,21.60
2018-05-24T16:12:41.158Z,21.60
2018-05-24T16:15:08.658Z,21.60
2018-05-24T16:17:36.557Z,21.50
2018-05-24T16:20:04.528Z,21.40
2018-05-24T16:22:32.020Z,21.40
2018-05-24T16:24:59.590Z,21.30
2018-05-24T16:27:27.091Z,21.40
2018-05-24T16:29:54.579Z,21.50
2018-05-24T16:32:22.484Z,21.60
2018-05-24T16:34:50.451Z,21.50
2018-05-24T16:37:17.945Z,21.50
2018-05-24T16:39:45.835Z,21.50
2018-05-24T16:42:13.819Z,21.50
2018-05-24T16:44:41.403Z,21.50
2018-05-24T16:47:08.908Z,21.40
2018-05-24T16:49:36.782Z,21.40
2018-05-24T16:52:04.378Z,21.40
2018-05-24T16:54:32.303Z,21.40
2018-05-24T16:57:00.255Z,21.50
2018-05-24T16:59:27.839Z,21.50
2018-05-24T17:01:55.359Z,21.50
2018-05-24T17:04:22.930Z,21.60
2018-05-24T17:06:50.900Z,21.60
2018-05-24T17:09:18.381Z,21.60
2018-05-24T17:11:45.891Z,21.50
2018-05-24T17:14:13.770Z,21.70
2018-05-24T17:16:41.671Z,21.70
2018-05-24T17:19:09.551Z,21.50
2018-05-24T17:21:37.066Z,21.50
2018-05-24T17:24:04.541Z,21.50
2018-05-24T17:26:32.095Z,21.50
2018-05-24T17:28:59.573Z,21.50
2018-05-24T17:31:27.109Z,21.50
2018-05-24T17:33:54.607Z,21.40
2018-05-24T17:36:22.117Z,21.30
2018-05-24T17:38:49.710Z,21.20
2018-05-24T17:41:17.255Z,21.20
2018-05-24T17:43:44.743Z,21.30
2018-05-24T17:46:12.415Z,21.20
2018-05-24T17:48:39.904Z,21.20
2018-05-24T17:51:07.437Z,21.10
2018-05-24T17:53:35.051Z,21.00
2018-05-24T17:56:02.611Z,20.90
2018-05-24T17:58:30.187Z,20.80
2018-05-24T18:00:57.670Z,20.70
2018-05-24T18:03:25.165Z,20.60
2018-05-24T18:05:52.655Z,20.60
2018-05-24T18:08:20.559Z,20.50
2018-05-24T18:10:48.080Z,20.50
2018-05-24T18:13:15.598Z,20.50
2018-05-24T18:15:43.204Z,20.50
2018-05-24T18:18:11.115Z,20.40
2018-05-24T18:20:38.659Z,20.40
2018-05-24T18:23:06.166Z,20.30
2018-05-24T18:25:34.162Z,20.30
2018-05-24T18:28:01.724Z,20.30
2018-05-24T18:30:29.219Z,20.30
2018-05-24T18:32:57.204Z,20.10
2018-05-24T18:35:25.196Z,20.10
2018-05-24T18:37:52.781Z,20.10
2018-05-24T18:40:20.300Z,20.00
2018-05-24T18:42:47.860Z,19.90
2018-05-24T18:45:15.832Z,19.80
2018-05-24T18:47:43.339Z,19.80
2018-05-24T18:50:11.234Z,19.70
2018-05-24T18:52:39.135Z,19.70
2018-05-24T18:55:07.024Z,19.80
2018-05-24T18:57:34.926Z,19.70
2018-05-24T19:00:02.414Z,19.70
2018-05-24T19:02:29.925Z,19.60
2018-05-24T19:04:57.415Z,19.60
2018-05-24T19:07:24.922Z,19.60
2018-05-24T19:09:52.508Z,19.60
2018-05-24T19:12:20.035Z,19.50
2018-05-24T19:14:47.568Z,19.40
2018-05-24T19:17:15.054Z,19.40
2018-05-24T19:19:42.559Z,19.30
2018-05-24T19:22:10.438Z,19.30
2018-05-24T19:24:37.943Z,19.30
2018-05-24T19:27:05.834Z,19.10
2018-05-24T19:29:33.826Z,19.10
2018-05-24T19:32:01.712Z,19.10
2018-05-24T19:34:29.701Z,19.00
2018-05-24T19:36:57.196Z,19.10
2018-05-24T19:39:25.193Z,19.00
2018-05-24T19:41:53.070Z,19.00
2018-05-24T19:44:21.068Z,19.00
2018-05-24T19:46:48.949Z,19.00
2018-05-24T19:49:16.463Z,19.00
2018-05-24T19:51:44.431Z,19.10
2018-05-24T19:54:11.948Z,19.10
2018-05-24T19:56:39.499Z,19.10
2018-05-24T19:59:07.011Z,19.10
2018-05-24T20:01:34.502Z,19.00
2018-05-24T20:04:02.043Z,19.00
2018-05-24T20:06:29.531Z,19.00
2018-05-24T20:08:57.120Z,19.00
2018-05-24T20:11:25.003Z,18.90
2018-05-24T20:13:52.507Z,18.90
2018-05-24T20:16:20.382Z,18.80
2018-05-24T20:18:47.973Z,18.90
2018-05-24T20:21:15.955Z,18.80
2018-05-24T20:23:43.467Z,18.90
2018-05-24T20:26:11.345Z,18.80
2018-05-24T20:28:39.327Z,18.80
2018-05-24T20:31:06.819Z,18.80
2018-05-24T20:33:34.395Z,18.80
2018-05-24T20:36:01.898Z,18.80
2018-05-24T20:38:29.869Z,18.70
2018-05-24T20:40:57.379Z,18.80
2018-05-24T20:43:25.360Z,18.70
2018-05-24T20:45:52.866Z,18.70
2018-05-24T20:48:20.747Z,18.70
2018-05-24T20:50:48.718Z,18.70
2018-05-24T20:53:16.223Z,18.70
2018-05-24T20:55:43.799Z,18.60
2018-05-24T20:58:11.371Z,18.60
2018-05-24T21:00:38.884Z,18.60
2018-05-24T21:03:06.767Z,18.60
2018-05-24T21:05:34.681Z,18.50
2018-05-24T21:08:02.238Z,18.60
2018-05-24T21:10:29.756Z,18.50
2018-05-24T21:12:57.256Z,18.50
2018-05-24T21:15:24.775Z,18.50
2018-05-24T21:17:52.363Z,18.50
2018-05-24T21:20:19.963Z,18.50
2018-05-24T21:22:47.539Z,18.50
2018-05-24T21:25:15.445Z,18.60
2018-05-24T21:27:43.011Z,18.60
2018-05-24T21:30:10.704Z,18.60
2018-05-24T21:32:38.215Z,18.50
2018-05-24T21:35:05.703Z,18.50
2018-05-24T21:37:33.210Z,18.50
2018-05-24T21:40:00.711Z,18.40
2018-05-24T21:42:28.232Z,18.40
2018-05-24T21:44:56.167Z,18.40
2018-05-24T21:47:23.668Z,18.40
2018-05-24T21:49:51.183Z,18.40
2018-05-24T21:52:18.696Z,18.40
2018-05-24T21:54:46.186Z,18.30
2018-05-24T21:57:13.690Z,18.30
2018-05-24T21:59:41.217Z,18.40
2018-05-24T22:02:09.134Z,18.30
2018-05-24T22:04:37.016Z,18.30
2018-05-24T22:07:04.890Z,18.30
2018-05-24T22:09:32.399Z,18.30
2018-05-24T22:11:59.960Z,18.20
2018-05-24T22:14:27.955Z,18.20
2018-05-24T22:16:55.484Z,18.30
2018-05-24T22:19:23.019Z,18.20
2018-05-24T22:21:50.507Z,18.20
2018-05-24T22:24:18.020Z,18.20
2018-05-24T22:26:45.608Z,18.20
2018-05-24T22:29:13.121Z,18.20
2018-05-24T22:31:40.616Z,18.30
2018-05-24T22:34:08.122Z,18.20
2018-05-24T22:36:35.702Z,18.20
2018-05-24T22:39:03.226Z,18.10
2018-05-24T22:41:30.779Z,18.10
2018-05-24T22:43:58.293Z,18.00
2018-05-24T22:46:25.837Z,18.00
2018-05-24T22:48:53.427Z,18.00
2018-05-24T22:51:20.959Z,17.90
2018-05-24T22:53:48.504Z,17.90
2018-05-24T22:56:16.492Z,17.80
2018-05-24T22:58:44.392Z,17.70
2018-05-24T23:01:12.290Z,17.70
2018-05-24T23:03:40.179Z,17.70
2018-05-24T23:06:08.160Z,17.70
2018-05-24T23:08:36.058Z,17.60
2018-05-24T23:11:03.645Z,17.70
2018-05-24T23:13:31.222Z,17.60
2018-05-24T23:15:58.739Z,17.60
2018-05-24T23:18:26.636Z,17.60
2018-05-24T23:20:54.147Z,17.60
2018-05-24T23:23:21.629Z,17.50
2018-05-24T23:25:49.124Z,17.50
2018-05-24T23:28:16.637Z,17.50
2018-05-24T23:30:44.224Z,17.40
2018-05-24T23:33:12.139Z,17.50
2018-05-24T23:35:40.027Z,17.50
2018-05-24T23:38:07.587Z,17.50
2018-05-24T23:40:35.079Z,17.50
2018-05-24T23:43:02.588Z,17.50
2018-05-24T23:45:30.155Z,17.40
2018-05-24T23:47:58.165Z,17.40
2018-05-24T23:50:26.133Z,17.30
2018-05-24T23:52:53.643Z,17.40
2018-05-24T23:55:21.531Z,17.30
2018-05-24T23:57:49.503Z,17.20
